Time,TemperatureF,DewpointF,PressureIn,WindDirection,WindDirectionDegrees,WindSpeedMPH,WindSpeedGustMPH,Humidity,HourlyPrecipIn,Conditions,Clouds,dailyrainin,SoftwareType,DateUTC
2013-04-24 00:04:00,31.1,24.8,29.24,NNW,338,17.0,17.0,77,0.00,,---,0.00,VWS V13.01,2013-04-24 05:04:00,
2013-04-24 00:09:00,31.1,24.8,29.24,NNE,22,4.4,4.4,77,0.00,,---,0.00,VWS V13.01,2013-04-24 05:09:00,
2013-04-24 00:14:00,31.1,24.8,29.24,NNW,338,2.6,2.6,77,0.00,,---,0.00,VWS V13.01,2013-04-24 05:14:00,
2013-04-24 00:19:00,31.1,24.8,29.24,NNW,338,15.6,15.6,77,0.00,,---,0.00,VWS V13.01,2013-04-24 05:19:00,
2013-04-24 00:24:00,31.1,24.8,29.25,NNW,338,0.0,0.0,77,0.00,,---,0.00,VWS V13.01,2013-04-24 05:24:00,
2013-04-24 00:29:00,31.1,24.8,29.25,NNE,22,0.0,0.0,77,0.00,,---,0.00,VWS V13.01,2013-04-24 05:29:00,
2013-04-24 00:34:00,30.9,24.5,29.25,NNW,338,2.6,8.0,77,0.00,,---,0.00,VWS V13.01,2013-04-24 05:34:00,
2013-04-24 00:39:00,30.9,24.5,29.25,North,0,8.0,8.0,77,0.00,,---,0.00,VWS V13.01,2013-04-24 05:39:00,
2013-04-24 00:44:00,30.9,24.5,29.25,NNW,338,7.6,7.6,77,0.00,,---,0.00,VWS V13.01,2013-04-24 05:44:00,
2013-04-24 00:49:00,30.7,24.7,29.25,North,0,6.6,6.6,78,0.00,,---,0.00,VWS V13.01,2013-04-24 05:49:00,
2013-04-24 00:54:00,30.9,24.9,29.25,NE,45,0.0,0.0,78,0.00,,---,0.00,VWS V13.01,2013-04-24 05:54:00,
2013-04-24 00:59:00,30.7,24.7,29.25,NW,315,8.8,8.8,78,0.00,,---,0.00,VWS V13.01,2013-04-24 05:59:00,
2013-04-24 01:04:00,30.7,24.7,29.25,NNW,338,0.0,2.6,78,0.00,,---,0.00,VWS V13.01,2013-04-24 06:04:00,
2013-04-24 01:09:00,30.7,24.7,29.25,North,0,3.4,3.4,78,0.00,,---,0.00,VWS V13.01,2013-04-24 06:09:00,
2013-04-24 01:14:00,30.7,24.7,29.25,North,0,0.0,0.0,78,0.00,,---,0.00,VWS V13.01,2013-04-24 06:14:00,
2013-04-24 01:19:00,30.5,24.5,29.25,North,0,2.2,4.0,78,0.00,,---,0.00,VWS V13.01,2013-04-24 06:19:00,
2013-04-24 01:24:00,30.5,24.5,29.25,North,0,8.4,8.4,78,0.00,,---,0.00,VWS V13.01,2013-04-24 06:24:00,
2013-04-24 01:29:00,30.3,24.3,29.24,North,0,5.2,5.2,78,0.00,,---,0.00,VWS V13.01,2013-04-24 06:29:00,
2013-04-24 01:34:00,30.3,24.3,29.25,North,0,9.8,9.8,78,0.00,,---,0.00,VWS V13.01,2013-04-24 06:34:00,
2013-04-24 01:39:00,30.2,24.5,29.25,North,0,0.0,0.0,79,0.00,,---,0.00,VWS V13.01,2013-04-24 06:39:00,
2013-04-24 01:44:00,30.0,24.3,29.25,North,0,0.0,0.0,79,0.00,,---,0.00,VWS V13.01,2013-04-24 06:44:00,
2013-04-24 01:49:00,30.0,24.3,29.25,North,0,0.0,0.0,79,0.00,,---,0.00,VWS V13.01,2013-04-24 06:49:00,
2013-04-24 01:54:00,29.8,24.1,29.25,North,0,0.0,0.0,79,0.00,,---,0.00,VWS V13.01,2013-04-24 06:54:00,
2013-04-24 01:59:00,29.8,24.1,29.25,North,0,0.0,0.0,79,0.00,,---,0.00,VWS V13.01,2013-04-24 06:59:00,
2013-04-24 02:04:00,29.4,23.7,29.25,North,0,0.0,5.2,79,0.00,,---,0.00,VWS V13.01,2013-04-24 07:04:00,
2013-04-24 02:09:00,29.4,23.7,29.25,North,0,0.0,0.0,79,0.00,,---,0.00,VWS V13.01,2013-04-24 07:09:00,
2013-04-24 02:14:00,29.3,23.6,29.25,North,0,0.0,0.0,79,0.00,,---,0.00,VWS V13.01,2013-04-24 07:14:00,
2013-04-24 02:20:00,29.1,23.7,29.26,North,0,0.0,0.0,80,0.00,,---,0.00,VWS V13.01,2013-04-24 07:20:00,
2013-04-24 02:25:00,29.1,23.7,29.25,NNW,338,0.0,0.0,80,0.00,,---,0.00,VWS V13.01,2013-04-24 07:25:00,
2013-04-24 02:30:00,29.1,23.7,29.25,NNW,338,0.0,0.0,80,0.00,,---,0.00,VWS V13.01,2013-04-24 07:30:00,
2013-04-24 02:36:00,28.9,23.5,29.25,NNW,338,0.0,0.0,80,0.00,,---,0.00,VWS V13.01,2013-04-24 07:36:00,
2013-04-24 02:41:00,28.9,23.5,29.26,NNW,338,0.0,0.0,80,0.00,,---,0.00,VWS V13.01,2013-04-24 07:41:00,
2013-04-24 02:46:00,28.7,23.6,29.25,NNW,338,0.0,0.0,81,0.00,,---,0.00,VWS V13.01,2013-04-24 07:46:00,
2013-04-24 02:51:00,28.7,23.6,29.25,NNW,338,0.0,0.0,81,0.00,,---,0.00,VWS V13.01,2013-04-24 07:51:00,
2013-04-24 02:56:00,28.5,23.4,29.25,NNW,338,0.0,0.0,81,0.00,,---,0.00,VWS V13.01,2013-04-24 07:56:00,
2013-04-24 03:01:00,28.5,23.4,29.25,NNW,338,0.0,0.0,81,0.00,,---,0.00,VWS V13.01,2013-04-24 08:01:00,
2013-04-24 03:06:00,28.5,23.4,29.25,NNW,338,7.6,7.6,81,0.00,,---,0.00,VWS V13.01,2013-04-24 08:06:00,
2013-04-24 03:11:00,28.5,23.4,29.24,NNW,338,0.0,0.0,81,0.00,,---,0.00,VWS V13.01,2013-04-24 08:11:00,
2013-04-24 03:16:00,28.5,23.4,29.24,NNW,338,2.2,2.2,81,0.00,,---,0.00,VWS V13.01,2013-04-24 08:16:00,
2013-04-24 03:21:00,28.5,23.7,29.24,NNW,338,0.0,0.0,82,0.00,,---,0.00,VWS V13.01,2013-04-24 08:21:00,
2013-04-24 03:26:00,28.5,23.7,29.24,NNW,338,4.0,4.0,82,0.00,,---,0.00,VWS V13.01,2013-04-24 08:26:00,
2013-04-24 03:31:00,28.2,23.4,29.25,NNW,338,7.6,7.6,82,0.00,,---,0.00,VWS V13.01,2013-04-24 08:31:00,
2013-04-24 03:36:00,28.2,23.4,29.25,NW,315,0.0,8.0,82,0.00,,---,0.00,VWS V13.01,2013-04-24 08:36:00,
2013-04-24 03:41:00,28.2,23.4,29.24,NW,315,4.8,4.8,82,0.00,,---,0.00,VWS V13.01,2013-04-24 08:41:00,
2013-04-24 03:47:00,28.2,23.4,29.24,NW,315,0.0,0.0,82,0.00,,---,0.00,VWS V13.01,2013-04-24 08:47:00,
2013-04-24 03:52:00,28.2,23.4,29.24,NW,315,3.4,3.4,82,0.00,,---,0.00,VWS V13.01,2013-04-24 08:52:00,
2013-04-24 03:57:00,28.0,23.2,29.24,NW,315,8.8,8.8,82,0.00,,---,0.00,VWS V13.01,2013-04-24 08:57:00,
2013-04-24 04:03:00,28.0,23.2,29.24,NW,315,3.4,3.4,82,0.00,,---,0.00,VWS V13.01,2013-04-24 09:03:00,
2013-04-24 04:08:00,28.0,23.2,29.24,NNW,338,0.0,0.0,82,0.00,,---,0.00,VWS V13.01,2013-04-24 09:08:00,
2013-04-24 04:13:00,28.0,23.2,29.24,NNW,338,10.6,10.6,82,0.00,,---,0.00,VWS V13.01,2013-04-24 09:13:00,
2013-04-24 04:18:00,28.0,23.2,29.24,NNW,338,0.0,0.0,82,0.00,,---,0.00,VWS V13.01,2013-04-24 09:18:00,
2013-04-24 04:23:00,28.0,23.2,29.23,NNW,338,8.0,15.2,82,0.00,,---,0.00,VWS V13.01,2013-04-24 09:23:00,
2013-04-24 04:28:00,28.0,23.2,29.23,NNW,338,6.2,6.2,82,0.00,,---,0.00,VWS V13.01,2013-04-24 09:28:00,
2013-04-24 04:33:00,28.0,23.2,29.24,NNW,338,7.0,7.0,82,0.00,,---,0.00,VWS V13.01,2013-04-24 09:33:00,
2013-04-24 04:38:00,28.0,23.2,29.24,NNW,338,3.4,4.4,82,0.00,,---,0.00,VWS V13.01,2013-04-24 09:38:00,
2013-04-24 04:43:00,28.0,23.2,29.24,NNW,338,0.0,0.0,82,0.00,,---,0.00,VWS V13.01,2013-04-24 09:43:00,
2013-04-24 04:48:00,27.6,22.8,29.24,NNW,338,1.2,1.2,82,0.00,,---,0.00,VWS V13.01,2013-04-24 09:48:00,
2013-04-24 04:53:00,27.6,22.8,29.23,NNW,338,1.6,4.0,82,0.00,,---,0.00,VWS V13.01,2013-04-24 09:53:00,
2013-04-24 04:59:00,27.6,22.8,29.23,NNW,338,2.2,2.2,82,0.00,,---,0.00,VWS V13.01,2013-04-24 09:59:00,
2013-04-24 05:04:00,27.6,22.8,29.23,NNW,338,6.2,6.2,82,0.00,,---,0.00,VWS V13.01,2013-04-24 10:04:00,
2013-04-24 05:09:00,27.5,22.7,29.24,NNW,338,0.0,0.0,82,0.00,,---,0.00,VWS V13.01,2013-04-24 10:09:00,
2013-04-24 05:14:00,27.5,22.7,29.24,NNW,338,3.4,3.4,82,0.00,,---,0.00,VWS V13.01,2013-04-24 10:14:00,
2013-04-24 05:19:00,27.3,22.5,29.24,NNW,338,0.0,0.0,82,0.00,,---,0.00,VWS V13.01,2013-04-24 10:19:00,
2013-04-24 05:24:00,27.3,22.5,29.24,NNW,338,0.0,0.0,82,0.00,,---,0.00,VWS V13.01,2013-04-24 10:24:00,
2013-04-24 05:29:00,27.3,22.5,29.24,NNW,338,4.4,4.4,82,0.00,,---,0.00,VWS V13.01,2013-04-24 10:29:00,
2013-04-24 05:34:00,27.1,22.4,29.24,NNW,338,0.0,0.0,82,0.00,,---,0.00,VWS V13.01,2013-04-24 10:34:00,
2013-04-24 05:39:00,27.1,22.4,29.24,NNW,338,4.0,4.0,82,0.00,,---,0.00,VWS V13.01,2013-04-24 10:39:00,
2013-04-24 05:44:00,27.1,22.4,29.24,NNW,338,0.0,0.0,82,0.00,,---,0.00,VWS V13.01,2013-04-24 10:44:00,
2013-04-24 05:49:00,27.1,22.4,29.24,NNW,338,5.8,5.8,82,0.00,,---,0.00,VWS V13.01,2013-04-24 10:49:00,
2013-04-24 05:54:00,26.9,22.1,29.25,NNW,338,0.0,0.0,82,0.00,,---,0.00,VWS V13.01,2013-04-24 10:54:00,
2013-04-24 05:59:00,26.9,22.1,29.25,NNW,338,0.0,0.0,82,0.00,,---,0.00,VWS V13.01,2013-04-24 10:59:00,
2013-04-24 06:04:00,26.7,22.0,29.24,NNW,338,1.2,1.2,82,0.00,,---,0.00,VWS V13.01,2013-04-24 11:04:00,
2013-04-24 06:09:00,26.7,22.0,29.24,NNW,338,0.0,0.0,82,0.00,,---,0.00,VWS V13.01,2013-04-24 11:09:00,
2013-04-24 06:15:00,26.6,21.9,29.24,NNW,338,0.0,0.0,82,0.00,,---,0.00,VWS V13.01,2013-04-24 11:15:00,
2013-04-24 06:21:00,26.6,21.9,29.24,NNW,338,0.0,0.0,82,0.00,,---,0.00,VWS V13.01,2013-04-24 11:21:00,
2013-04-24 06:26:00,26.6,21.9,29.24,NNW,338,0.0,0.0,82,0.00,,---,0.00,VWS V13.01,2013-04-24 11:26:00,
2013-04-24 06:31:00,26.4,21.7,29.24,NNW,338,0.0,0.0,82,0.00,,---,0.00,VWS V13.01,2013-04-24 11:31:00,
2013-04-24 06:36:00,26.4,21.7,29.24,NNW,338,6.2,6.2,82,0.00,,---,0.00,VWS V13.01,2013-04-24 11:36:00,
2013-04-24 06:41:00,26.4,21.7,29.24,NNW,338,3.4,3.4,82,0.00,,---,0.00,VWS V13.01,2013-04-24 11:41:00,
2013-04-24 06:46:00,26.4,21.7,29.25,NNW,338,1.6,1.6,82,0.00,,---,0.00,VWS V13.01,2013-04-24 11:46:00,
2013-04-24 06:51:00,26.4,21.7,29.25,NNW,338,2.6,2.6,82,0.00,,---,0.00,VWS V13.01,2013-04-24 11:51:00,
2013-04-24 06:56:00,26.6,21.9,29.25,NNW,338,2.6,2.6,82,0.00,,---,0.00,VWS V13.01,2013-04-24 11:56:00,
2013-04-24 07:01:00,26.6,21.9,29.24,NNW,338,0.0,0.0,82,0.00,,---,0.00,VWS V13.01,2013-04-24 12:01:00,
2013-04-24 07:06:00,26.7,22.0,29.25,NNW,338,2.6,4.0,82,0.00,,---,0.00,VWS V13.01,2013-04-24 12:06:00,
2013-04-24 07:11:00,26.7,22.0,29.25,NW,315,1.6,1.6,82,0.00,,---,0.00,VWS V13.01,2013-04-24 12:11:00,
2013-04-24 07:16:00,26.9,22.4,29.24,NW,315,3.4,3.4,83,0.00,,---,0.00,VWS V13.01,2013-04-24 12:16:00,
2013-04-24 07:21:00,27.1,22.6,29.24,NW,315,3.0,4.0,83,0.00,,---,0.00,VWS V13.01,2013-04-24 12:21:00,
2013-04-24 07:26:00,27.3,22.8,29.24,NW,315,0.0,0.0,83,0.00,,---,0.00,VWS V13.01,2013-04-24 12:26:00,
2013-04-24 07:31:00,27.5,23.0,29.25,NW,315,4.0,4.0,83,0.00,,---,0.00,VWS V13.01,2013-04-24 12:31:00,
2013-04-24 07:36:00,27.6,23.1,29.25,NW,315,0.0,0.0,83,0.00,,---,0.00,VWS V13.01,2013-04-24 12:36:00,
2013-04-24 07:41:00,28.0,23.5,29.25,NW,315,0.0,0.0,83,0.00,,---,0.00,VWS V13.01,2013-04-24 12:41:00,
2013-04-24 07:46:00,28.2,23.7,29.25,NW,315,0.0,0.0,83,0.00,,---,0.00,VWS V13.01,2013-04-24 12:46:00,
2013-04-24 07:51:00,28.5,24.0,29.25,NW,315,0.0,0.0,83,0.00,,---,0.00,VWS V13.01,2013-04-24 12:51:00,
2013-04-24 07:56:00,28.7,24.2,29.25,NW,315,2.6,2.6,83,0.00,,---,0.00,VWS V13.01,2013-04-24 12:56:00,
2013-04-24 08:01:00,29.1,24.6,29.25,NW,315,0.0,0.0,83,0.00,,---,0.00,VWS V13.01,2013-04-24 13:01:00,
2013-04-24 08:06:00,29.8,25.0,29.25,NW,315,9.2,9.2,82,0.00,,---,0.00,VWS V13.01,2013-04-24 13:06:00,
2013-04-24 08:12:00,30.0,25.2,29.25,NW,315,0.0,3.0,82,0.00,,---,0.00,VWS V13.01,2013-04-24 13:12:00,
2013-04-24 08:17:00,30.3,25.5,29.25,NW,315,0.0,0.0,82,0.00,,---,0.00,VWS V13.01,2013-04-24 13:17:00,
2013-04-24 08:22:00,30.5,25.4,29.25,WNW,292,2.2,2.2,81,0.00,,---,0.00,VWS V13.01,2013-04-24 13:22:00,
2013-04-24 08:27:00,30.9,25.8,29.24,WNW,292,0.0,3.0,81,0.00,,---,0.00,VWS V13.01,2013-04-24 13:27:00,
2013-04-24 08:32:00,31.2,26.1,29.24,WNW,292,6.2,6.2,81,0.00,,---,0.00,VWS V13.01,2013-04-24 13:32:00,
2013-04-24 08:37:00,31.6,26.5,29.24,WNW,292,0.0,0.0,81,0.00,,---,0.00,VWS V13.01,2013-04-24 13:37:00,
2013-04-24 08:42:00,31.8,26.4,29.25,West,270,0.0,6.6,80,0.00,,---,0.00,VWS V13.01,2013-04-24 13:42:00,
2013-04-24 08:47:00,32.1,26.6,29.25,West,270,8.0,10.2,80,0.00,,---,0.00,VWS V13.01,2013-04-24 13:47:00,
2013-04-24 08:52:00,32.3,26.8,29.25,West,270,5.2,5.2,80,0.00,,---,0.00,VWS V13.01,2013-04-24 13:52:00,
2013-04-24 08:57:00,32.7,26.9,29.25,WSW,248,10.2,10.2,79,0.00,,---,0.00,VWS V13.01,2013-04-24 13:57:00,
2013-04-24 09:02:00,32.9,27.1,29.25,West,270,5.2,12.8,79,0.00,,---,0.00,VWS V13.01,2013-04-24 14:02:00,
2013-04-24 09:07:00,33.0,27.2,29.25,WSW,248,8.4,8.4,79,0.00,,---,0.00,VWS V13.01,2013-04-24 14:07:00,
2013-04-24 09:12:00,33.6,27.5,29.25,SW,225,14.2,14.2,78,0.00,,---,0.00,VWS V13.01,2013-04-24 14:12:00,
2013-04-24 09:17:00,33.8,27.7,29.25,SW,225,10.2,10.2,78,0.00,,---,0.00,VWS V13.01,2013-04-24 14:17:00,
2013-04-24 09:22:00,33.9,27.8,29.25,SW,225,12.0,12.0,78,0.00,,---,0.00,VWS V13.01,2013-04-24 14:22:00,
2013-04-24 09:27:00,34.3,27.9,29.25,SW,225,6.6,10.2,77,0.00,,---,0.00,VWS V13.01,2013-04-24 14:27:00,
2013-04-24 09:32:00,34.3,27.9,29.24,WSW,248,10.2,10.2,77,0.00,,---,0.00,VWS V13.01,2013-04-24 14:32:00,
2013-04-24 09:37:00,34.7,28.2,29.24,SSW,202,3.0,3.0,77,0.00,,---,0.00,VWS V13.01,2013-04-24 14:37:00,
2013-04-24 09:42:00,35.2,28.7,29.24,SW,225,15.2,15.2,77,0.00,,---,0.00,VWS V13.01,2013-04-24 14:42:00,
2013-04-24 09:47:00,35.4,28.9,29.25,SW,225,10.2,12.0,77,0.00,,---,0.00,VWS V13.01,2013-04-24 14:47:00,
2013-04-24 09:52:00,35.7,28.9,29.25,West,270,9.2,9.2,76,0.00,,---,0.00,VWS V13.01,2013-04-24 14:52:00,
2013-04-24 09:57:00,36.1,29.0,29.25,SSW,202,12.0,12.0,75,0.00,,---,0.00,VWS V13.01,2013-04-24 14:57:00,
2013-04-24 10:02:00,36.3,29.1,29.24,SSW,202,14.2,14.2,75,0.00,,---,0.00,VWS V13.01,2013-04-24 15:02:00,
2013-04-24 10:09:00,37.0,29.8,29.24,SSW,202,8.8,8.8,75,0.00,,---,0.00,VWS V13.01,2013-04-24 15:09:00,
2013-04-24 10:15:00,37.2,30.0,29.24,SW,225,0.8,0.8,75,0.00,,---,0.00,VWS V13.01,2013-04-24 15:15:00,
2013-04-24 10:20:00,37.7,30.5,29.24,SW,225,15.2,15.2,75,0.00,,---,0.00,VWS V13.01,2013-04-24 15:20:00,
2013-04-24 10:25:00,37.9,30.4,29.24,SW,225,11.6,11.6,74,0.00,,---,0.00,VWS V13.01,2013-04-24 15:25:00,
2013-04-24 10:30:00,38.1,30.2,29.24,South,180,11.0,11.0,73,0.00,,---,0.00,VWS V13.01,2013-04-24 15:30:00,
2013-04-24 10:35:00,38.4,30.9,29.24,SSE,158,8.8,8.8,74,0.00,,---,0.00,VWS V13.01,2013-04-24 15:35:00,
2013-04-24 10:40:00,39.0,31.4,29.24,SW,225,10.2,15.6,74,0.00,,---,0.00,VWS V13.01,2013-04-24 15:40:00,
2013-04-24 10:45:00,39.7,32.1,29.24,SSW,202,10.2,10.2,74,0.00,,---,0.00,VWS V13.01,2013-04-24 15:45:00,
2013-04-24 10:50:00,39.9,32.0,29.24,WSW,248,0.0,0.0,73,0.00,,---,0.00,VWS V13.01,2013-04-24 15:50:00,
2013-04-24 10:55:00,40.6,32.0,29.24,WSW,248,20.0,20.0,71,0.00,,---,0.00,VWS V13.01,2013-04-24 15:55:00,
2013-04-24 11:00:00,40.8,32.1,29.24,West,270,8.8,8.8,71,0.00,,---,0.00,VWS V13.01,2013-04-24 16:00:00,
2013-04-24 11:05:00,41.1,32.1,29.24,SW,225,12.8,12.8,70,0.00,,---,0.00,VWS V13.01,2013-04-24 16:05:00,
2013-04-24 11:10:00,41.7,32.3,29.24,SSW,202,8.4,8.4,69,0.00,,---,0.00,VWS V13.01,2013-04-24 16:10:00,
2013-04-24 11:15:00,42.2,32.8,29.24,SSW,202,13.4,13.4,69,0.00,,---,0.00,VWS V13.01,2013-04-24 16:15:00,
2013-04-24 11:20:00,42.6,33.2,29.24,West,270,6.2,6.2,69,0.00,,---,0.00,VWS V13.01,2013-04-24 16:20:00,
2013-04-24 11:25:00,42.9,32.7,29.23,SSW,202,3.4,14.2,67,0.00,,---,0.00,VWS V13.01,2013-04-24 16:25:00,
2013-04-24 11:30:00,43.3,32.7,29.24,SW,225,4.0,4.0,66,0.00,,---,0.00,VWS V13.01,2013-04-24 16:30:00,
2013-04-24 11:35:00,43.5,32.9,29.24,West,270,14.6,14.6,66,0.00,,---,0.00,VWS V13.01,2013-04-24 16:35:00,
2013-04-24 11:40:00,44.0,33.0,29.24,SW,225,14.6,14.6,65,0.00,,---,0.00,VWS V13.01,2013-04-24 16:40:00,
2013-04-24 11:45:00,44.4,33.0,29.24,West,270,6.2,6.2,64,0.00,,---,0.00,VWS V13.01,2013-04-24 16:45:00,
2013-04-24 11:50:00,44.7,33.3,29.23,West,270,10.6,10.6,64,0.00,,---,0.00,VWS V13.01,2013-04-24 16:50:00,
2013-04-24 11:55:00,45.1,32.5,29.23,West,270,9.2,10.2,61,0.00,,---,0.00,VWS V13.01,2013-04-24 16:55:00,
2013-04-24 12:00:00,45.3,32.7,29.23,West,270,12.8,12.8,61,0.00,,---,0.00,VWS V13.01,2013-04-24 17:00:00,
2013-04-24 12:05:00,45.6,32.5,29.23,WSW,248,6.2,6.2,60,0.00,,---,0.00,VWS V13.01,2013-04-24 17:05:00,
2013-04-24 12:10:00,46.0,32.5,29.23,West,270,14.2,14.2,59,0.00,,---,0.00,VWS V13.01,2013-04-24 17:10:00,
2013-04-24 12:15:00,46.0,32.5,29.23,WSW,248,11.6,11.6,59,0.00,,---,0.00,VWS V13.01,2013-04-24 17:15:00,
2013-04-24 12:20:00,46.2,32.2,29.23,WSW,248,7.0,7.0,58,0.00,,---,0.00,VWS V13.01,2013-04-24 17:20:00,
2013-04-24 12:25:00,46.5,32.1,29.23,SSW,202,11.0,22.8,57,0.00,,---,0.00,VWS V13.01,2013-04-24 17:25:00,
2013-04-24 12:30:00,46.9,32.5,29.22,West,270,14.2,14.2,57,0.00,,---,0.00,VWS V13.01,2013-04-24 17:30:00,
2013-04-24 12:35:00,47.1,32.7,29.23,SSW,202,10.6,10.6,57,0.00,,---,0.00,VWS V13.01,2013-04-24 17:35:00,
2013-04-24 12:40:00,47.4,33.0,29.22,WSW,248,29.0,29.0,57,0.00,,---,0.00,VWS V13.01,2013-04-24 17:40:00,
2013-04-24 12:45:00,47.6,32.7,29.22,West,270,8.0,8.0,56,0.00,,---,0.00,VWS V13.01,2013-04-24 17:45:00,
2013-04-24 12:50:00,47.4,32.1,29.22,SSW,202,10.2,10.2,55,0.00,,---,0.00,VWS V13.01,2013-04-24 17:50:00,
2013-04-24 12:55:00,47.8,32.0,29.22,West,270,14.2,14.2,54,0.00,,---,0.00,VWS V13.01,2013-04-24 17:55:00,
2013-04-24 13:00:00,48.0,32.2,29.22,West,270,4.4,4.4,54,0.00,,---,0.00,VWS V13.01,2013-04-24 18:00:00,
2013-04-24 13:05:00,48.3,32.4,29.22,SW,225,14.2,14.2,54,0.00,,---,0.00,VWS V13.01,2013-04-24 18:05:00,
2013-04-24 13:10:00,48.9,33.0,29.22,West,270,10.2,24.6,54,0.00,,---,0.00,VWS V13.01,2013-04-24 18:10:00,
2013-04-24 13:15:00,49.1,32.7,29.21,West,270,26.8,26.8,53,0.00,,---,0.00,VWS V13.01,2013-04-24 18:15:00,
2013-04-24 13:20:00,49.1,32.7,29.21,West,270,13.4,13.4,53,0.00,,---,0.00,VWS V13.01,2013-04-24 18:20:00,
2013-04-24 13:25:00,49.6,33.2,29.21,WSW,248,17.4,24.0,53,0.00,,---,0.00,VWS V13.01,2013-04-24 18:25:00,
2013-04-24 13:30:00,49.8,33.4,29.21,SW,225,15.2,15.2,53,0.00,,---,0.00,VWS V13.01,2013-04-24 18:30:00,
2013-04-24 13:35:00,50.1,33.7,29.21,West,270,12.8,12.8,53,0.00,,---,0.00,VWS V13.01,2013-04-24 18:35:00,
2013-04-24 13:40:00,49.8,32.9,29.21,West,270,7.0,7.0,52,0.00,,---,0.00,VWS V13.01,2013-04-24 18:40:00,
2013-04-24 13:45:00,50.1,33.2,29.21,SW,225,29.0,29.0,52,0.00,,---,0.00,VWS V13.01,2013-04-24 18:45:00,
2013-04-24 13:50:00,50.1,32.7,29.21,West,270,6.6,6.6,51,0.00,,---,0.00,VWS V13.01,2013-04-24 18:50:00,
2013-04-24 13:55:00,50.1,32.7,29.21,SW,225,17.4,17.4,51,0.00,,---,0.00,VWS V13.01,2013-04-24 18:55:00,
2013-04-24 14:00:00,50.3,32.9,29.21,West,270,12.8,12.8,51,0.00,,---,0.00,VWS V13.01,2013-04-24 19:00:00,
2013-04-24 14:05:00,50.1,32.7,29.21,WSW,248,10.6,10.6,51,0.00,,---,0.00,VWS V13.01,2013-04-24 19:05:00,
2013-04-24 14:10:00,50.3,32.9,29.20,WSW,248,0.0,15.6,51,0.00,,---,0.00,VWS V13.01,2013-04-24 19:10:00,
2013-04-24 14:15:00,50.9,33.4,29.21,WSW,248,15.2,15.2,51,0.00,,---,0.00,VWS V13.01,2013-04-24 19:15:00,
2013-04-24 14:20:00,51.2,32.7,29.21,West,270,16.0,16.0,49,0.00,,---,0.00,VWS V13.01,2013-04-24 19:20:00,
2013-04-24 14:25:00,51.0,32.5,29.21,SSW,202,2.2,13.8,49,0.00,,---,0.00,VWS V13.01,2013-04-24 19:25:00,
2013-04-24 14:30:00,51.0,33.0,29.20,WSW,248,17.0,17.0,50,0.00,,---,0.00,VWS V13.01,2013-04-24 19:30:00,
2013-04-24 14:35:00,50.9,32.9,29.20,SW,225,24.0,24.0,50,0.00,,---,0.00,VWS V13.01,2013-04-24 19:35:00,
2013-04-24 14:40:00,51.0,32.5,29.20,SW,225,0.0,27.2,49,0.00,,---,0.00,VWS V13.01,2013-04-24 19:40:00,
2013-04-24 14:45:00,51.4,32.9,29.20,SW,225,16.0,16.0,49,0.00,,---,0.00,VWS V13.01,2013-04-24 19:45:00,
2013-04-24 14:50:00,51.4,32.9,29.20,SW,225,0.0,0.0,49,0.00,,---,0.00,VWS V13.01,2013-04-24 19:50:00,
2013-04-24 14:55:00,51.4,32.9,29.20,SSW,202,18.6,18.6,49,0.00,,---,0.00,VWS V13.01,2013-04-24 19:55:00,
2013-04-24 15:00:00,51.6,32.6,29.19,WSW,248,21.0,21.0,48,0.00,,---,0.00,VWS V13.01,2013-04-24 20:00:00,
2013-04-24 15:05:00,51.9,32.3,29.20,SW,225,16.4,16.4,47,0.00,,---,0.00,VWS V13.01,2013-04-24 20:05:00,
2013-04-24 15:10:00,52.5,32.3,29.20,SW,225,10.6,17.8,46,0.00,,---,0.00,VWS V13.01,2013-04-24 20:10:00,
2013-04-24 15:15:00,52.5,32.3,29.19,West,270,13.4,13.4,46,0.00,,---,0.00,VWS V13.01,2013-04-24 20:15:00,
2013-04-24 15:20:00,52.3,32.2,29.19,West,270,17.0,17.0,46,0.00,,---,0.00,VWS V13.01,2013-04-24 20:20:00,
2013-04-24 15:25:00,52.5,32.9,29.19,WSW,248,12.0,12.0,47,0.00,,---,0.00,VWS V13.01,2013-04-24 20:25:00,
2013-04-24 15:30:00,52.8,32.6,29.19,South,180,12.4,12.4,46,0.00,,---,0.00,VWS V13.01,2013-04-24 20:30:00,
2013-04-24 15:35:00,52.8,32.1,29.19,WSW,248,20.0,20.0,45,0.00,,---,0.00,VWS V13.01,2013-04-24 20:35:00,
2013-04-24 15:40:00,53.0,32.8,29.18,South,180,8.0,14.2,46,0.00,,---,0.00,VWS V13.01,2013-04-24 20:40:00,
2013-04-24 15:45:00,52.8,32.1,29.19,SW,225,25.8,25.8,45,0.00,,---,0.00,VWS V13.01,2013-04-24 20:45:00,
2013-04-24 15:50:00,52.5,32.3,29.18,SSW,202,24.0,24.0,46,0.00,,---,0.00,VWS V13.01,2013-04-24 20:50:00,
2013-04-24 15:55:00,52.3,31.6,29.18,WSW,248,0.4,21.0,45,0.00,,---,0.00,VWS V13.01,2013-04-24 20:55:00,
2013-04-24 16:00:00,52.3,32.2,29.18,SW,225,12.0,12.0,46,0.00,,---,0.00,VWS V13.01,2013-04-24 21:00:00,
2013-04-24 16:05:00,52.5,31.8,29.18,SW,225,29.0,29.0,45,0.00,,---,0.00,VWS V13.01,2013-04-24 21:05:00,
2013-04-24 16:10:00,52.5,31.8,29.18,SSW,202,12.4,25.0,45,0.00,,---,0.00,VWS V13.01,2013-04-24 21:10:00,
2013-04-24 16:15:00,52.7,32.0,29.18,SW,225,16.0,16.0,45,0.00,,---,0.00,VWS V13.01,2013-04-24 21:15:00,
2013-04-24 16:20:00,52.3,31.6,29.17,SSW,202,17.4,17.4,45,0.00,,---,0.00,VWS V13.01,2013-04-24 21:20:00,
2013-04-24 16:25:00,52.1,30.9,29.17,SW,225,19.2,19.2,44,0.00,,---,0.00,VWS V13.01,2013-04-24 21:25:00,
2013-04-24 16:31:00,52.3,31.0,29.18,West,270,20.4,20.4,44,0.00,,---,0.00,VWS V13.01,2013-04-24 21:31:00,
2013-04-24 16:36:00,52.1,30.9,29.17,WSW,248,27.2,27.2,44,0.00,,---,0.00,VWS V13.01,2013-04-24 21:36:00,
2013-04-24 16:41:00,52.1,30.3,29.17,SSW,202,21.8,21.8,43,0.00,,---,0.00,VWS V13.01,2013-04-24 21:41:00,
2013-04-24 16:46:00,51.9,30.7,29.17,SW,225,30.8,30.8,44,0.00,,---,0.00,VWS V13.01,2013-04-24 21:46:00,
2013-04-24 16:51:00,51.8,30.6,29.17,SW,225,18.6,18.6,44,0.00,,---,0.00,VWS V13.01,2013-04-24 21:51:00,
2013-04-24 16:56:00,51.9,30.7,29.16,WSW,248,12.4,12.4,44,0.00,,---,0.00,VWS V13.01,2013-04-24 21:56:00,
2013-04-24 17:01:00,51.9,30.1,29.17,WSW,248,1.6,19.2,43,0.00,,---,0.00,VWS V13.01,2013-04-24 22:01:00,
2013-04-24 17:06:00,52.1,30.3,29.16,West,270,9.8,9.8,43,0.00,,---,0.00,VWS V13.01,2013-04-24 22:06:00,
2013-04-24 17:11:00,52.3,30.5,29.16,SW,225,19.6,19.6,43,0.00,,---,0.00,VWS V13.01,2013-04-24 22:11:00,
2013-04-24 17:16:00,52.1,30.3,29.16,SSW,202,18.6,18.6,43,0.00,,---,0.00,VWS V13.01,2013-04-24 22:16:00,
2013-04-24 17:21:00,52.1,30.3,29.16,South,180,9.8,16.4,43,0.00,,---,0.00,VWS V13.01,2013-04-24 22:21:00,
2013-04-24 17:26:00,51.9,29.5,29.15,SSW,202,10.6,10.6,42,0.00,,---,0.00,VWS V13.01,2013-04-24 22:26:00,
2013-04-24 17:31:00,51.9,29.5,29.15,SSW,202,14.6,14.6,42,0.00,,---,0.00,VWS V13.01,2013-04-24 22:31:00,
2013-04-24 17:36:00,51.9,29.5,29.15,SW,225,3.4,3.4,42,0.00,,---,0.00,VWS V13.01,2013-04-24 22:36:00,
2013-04-24 17:41:00,51.9,29.5,29.16,South,180,4.0,4.0,42,0.00,,---,0.00,VWS V13.01,2013-04-24 22:41:00,
2013-04-24 17:46:00,51.9,29.5,29.15,WSW,248,13.4,14.6,42,0.00,,---,0.00,VWS V13.01,2013-04-24 22:46:00,
2013-04-24 17:51:00,51.6,29.9,29.15,SW,225,19.6,19.6,43,0.00,,---,0.00,VWS V13.01,2013-04-24 22:51:00,
2013-04-24 17:56:00,51.4,29.7,29.15,SW,225,14.6,14.6,43,0.00,,---,0.00,VWS V13.01,2013-04-24 22:56:00,
2013-04-24 18:01:00,50.9,29.2,29.15,SW,225,17.8,17.8,43,0.00,,---,0.00,VWS V13.01,2013-04-24 23:01:00,
2013-04-24 18:06:00,50.7,29.6,29.14,SW,225,10.2,34.4,44,0.00,,---,0.00,VWS V13.01,2013-04-24 23:06:00,
2013-04-24 18:11:00,50.9,29.8,29.14,SSW,202,12.4,12.4,44,0.00,,---,0.00,VWS V13.01,2013-04-24 23:11:00,
2013-04-24 18:16:00,51.4,30.8,29.13,WSW,248,14.6,14.6,45,0.00,,---,0.00,VWS V13.01,2013-04-24 23:16:00,
2013-04-24 18:21:00,51.6,30.4,29.13,South,180,17.8,17.8,44,0.00,,---,0.00,VWS V13.01,2013-04-24 23:21:00,
2013-04-24 18:27:00,51.0,30.4,29.13,SW,225,10.2,11.6,45,0.00,,---,0.00,VWS V13.01,2013-04-24 23:27:00,
2013-04-24 18:32:00,50.7,30.1,29.13,SW,225,17.8,17.8,45,0.00,,---,0.00,VWS V13.01,2013-04-24 23:32:00,
2013-04-24 18:37:00,50.7,30.7,29.12,South,180,0.0,0.0,46,0.00,,---,0.00,VWS V13.01,2013-04-24 23:37:00,
2013-04-24 18:43:00,50.1,30.7,29.12,WSW,248,10.2,10.2,47,0.00,,---,0.00,VWS V13.01,2013-04-24 23:43:00,
2013-04-24 18:49:00,49.8,31.4,29.12,WSW,248,12.8,12.8,49,0.00,,---,0.00,VWS V13.01,2013-04-24 23:49:00,
2013-04-24 18:54:00,49.6,31.7,29.13,SW,225,30.4,30.4,50,0.00,,---,0.00,VWS V13.01,2013-04-24 23:54:00,
2013-04-24 18:59:00,48.9,32.1,29.12,SSW,202,0.0,14.6,52,0.00,,---,0.00,VWS V13.01,2013-04-24 23:59:00,
2013-04-24 19:04:00,48.5,32.2,29.12,SW,225,0.0,0.0,53,0.00,,---,0.00,VWS V13.01,2013-04-25 00:04:00,
2013-04-24 19:09:00,48.2,32.3,29.14,SW,225,23.6,23.6,54,0.00,,---,0.00,VWS V13.01,2013-04-25 00:09:00,
2013-04-24 19:14:00,47.4,33.4,29.16,WNW,292,20.4,22.8,58,0.00,,---,0.00,VWS V13.01,2013-04-25 00:14:00,
2013-04-24 19:19:00,46.2,33.9,29.16,West,270,17.8,17.8,62,0.00,,---,0.00,VWS V13.01,2013-04-25 00:19:00,
2013-04-24 19:24:00,44.9,33.9,29.16,West,270,13.4,13.4,65,0.00,,---,0.00,VWS V13.01,2013-04-25 00:24:00,
2013-04-24 19:29:00,43.5,34.0,29.16,NNW,338,20.4,20.4,69,0.00,,---,0.00,VWS V13.01,2013-04-25 00:29:00,
2013-04-24 19:34:00,42.9,33.8,29.16,WNW,292,9.8,9.8,70,0.00,,---,0.00,VWS V13.01,2013-04-25 00:34:00,
2013-04-24 19:39:00,42.4,33.7,29.16,SW,225,8.4,8.4,71,0.00,,---,0.00,VWS V13.01,2013-04-25 00:39:00,
2013-04-24 19:44:00,42.0,33.6,29.15,West,270,7.0,14.6,72,0.02,,---,0.02,VWS V13.01,2013-04-25 00:44:00,
2013-04-24 19:49:00,42.0,34.0,29.15,WSW,248,9.2,9.2,73,0.02,,---,0.02,VWS V13.01,2013-04-25 00:49:00,
2013-04-24 19:55:00,42.0,34.0,29.14,SW,225,20.0,20.0,73,0.02,,---,0.02,VWS V13.01,2013-04-25 00:55:00,
2013-04-24 20:00:00,42.0,34.0,29.14,West,270,11.0,11.0,73,0.02,,---,0.02,VWS V13.01,2013-04-25 01:00:00,
2013-04-24 20:05:00,41.9,33.9,29.14,SW,225,6.6,6.6,73,0.02,,---,0.02,VWS V13.01,2013-04-25 01:05:00,
2013-04-24 20:10:00,41.7,34.0,29.15,WSW,248,8.8,9.2,74,0.02,,---,0.02,VWS V13.01,2013-04-25 01:10:00,
2013-04-24 20:15:00,41.5,33.8,29.15,West,270,10.2,10.2,74,0.02,,---,0.02,VWS V13.01,2013-04-25 01:15:00,
2013-04-24 20:20:00,41.5,33.8,29.15,West,270,8.4,8.4,74,0.02,,---,0.02,VWS V13.01,2013-04-25 01:20:00,
2013-04-24 20:25:00,41.5,34.2,29.15,WSW,248,11.0,25.8,75,0.02,,---,0.02,VWS V13.01,2013-04-25 01:25:00,
2013-04-24 20:30:00,41.5,34.2,29.15,WSW,248,12.8,12.8,75,0.02,,---,0.02,VWS V13.01,2013-04-25 01:30:00,
2013-04-24 20:35:00,41.5,34.2,29.15,West,270,11.0,12.8,75,0.02,,---,0.02,VWS V13.01,2013-04-25 01:35:00,
2013-04-24 20:40:00,41.5,34.2,29.16,West,270,11.6,11.6,75,0.02,,---,0.02,VWS V13.01,2013-04-25 01:40:00,
2013-04-24 20:45:00,41.7,34.7,29.16,WSW,248,15.6,15.6,76,0.00,,---,0.02,VWS V13.01,2013-04-25 01:45:00,
2013-04-24 20:50:00,41.7,34.7,29.17,West,270,12.4,18.2,76,0.00,,---,0.02,VWS V13.01,2013-04-25 01:50:00,
2013-04-24 20:55:00,41.7,35.0,29.17,West,270,13.8,13.8,77,0.00,,---,0.02,VWS V13.01,2013-04-25 01:55:00,
2013-04-24 21:00:00,41.7,35.0,29.18,West,270,18.2,18.2,77,0.00,,---,0.02,VWS V13.01,2013-04-25 02:00:00,
2013-04-24 21:05:00,41.7,35.0,29.18,West,270,15.2,15.2,77,0.00,,---,0.02,VWS V13.01,2013-04-25 02:05:00,
2013-04-24 21:10:00,41.5,34.8,29.18,West,270,8.0,16.0,77,0.00,,---,0.02,VWS V13.01,2013-04-25 02:10:00,
2013-04-24 21:15:00,41.5,34.8,29.18,WNW,292,12.0,12.0,77,0.00,,---,0.02,VWS V13.01,2013-04-25 02:15:00,
2013-04-24 21:20:00,41.1,34.5,29.18,West,270,17.0,17.0,77,0.00,,---,0.02,VWS V13.01,2013-04-25 02:20:00,
2013-04-24 21:25:00,41.0,34.3,29.18,West,270,18.2,18.2,77,0.00,,---,0.02,VWS V13.01,2013-04-25 02:25:00,
2013-04-24 21:30:00,40.8,34.2,29.18,West,270,14.2,14.2,77,0.00,,---,0.02,VWS V13.01,2013-04-25 02:30:00,
2013-04-24 21:35:00,40.4,33.8,29.18,NW,315,17.0,17.0,77,0.00,,---,0.02,VWS V13.01,2013-04-25 02:35:00,
2013-04-24 21:40:00,40.1,33.5,29.19,NNW,338,24.6,24.6,77,0.00,,---,0.02,VWS V13.01,2013-04-25 02:40:00,
2013-04-24 21:45:00,39.7,32.8,29.19,NW,315,13.8,13.8,76,0.00,,---,0.02,VWS V13.01,2013-04-25 02:45:00,
2013-04-24 21:50:00,39.3,32.4,29.19,West,270,8.8,11.6,76,0.00,,---,0.02,VWS V13.01,2013-04-25 02:50:00,
2013-04-24 21:55:00,39.0,32.4,29.20,NW,315,13.8,13.8,77,0.00,,---,0.02,VWS V13.01,2013-04-25 02:55:00,
2013-04-24 22:00:00,38.8,32.2,29.20,West,270,8.0,8.0,77,0.00,,---,0.02,VWS V13.01,2013-04-25 03:00:00,
2013-04-24 22:05:00,38.3,31.7,29.20,West,270,15.2,15.2,77,0.00,,---,0.02,VWS V13.01,2013-04-25 03:05:00,
2013-04-24 22:10:00,38.1,31.5,29.20,NW,315,12.4,12.4,77,0.00,,---,0.02,VWS V13.01,2013-04-25 03:10:00,
2013-04-24 22:15:00,37.9,31.4,29.21,WNW,292,13.8,13.8,77,0.00,,---,0.02,VWS V13.01,2013-04-25 03:15:00,
2013-04-24 22:20:00,37.5,31.3,29.21,WNW,292,19.6,19.6,78,0.00,,---,0.02,VWS V13.01,2013-04-25 03:20:00,
2013-04-24 22:25:00,37.2,31.0,29.21,West,270,6.2,6.2,78,0.00,,---,0.02,VWS V13.01,2013-04-25 03:25:00,
2013-04-24 22:30:00,37.2,31.0,29.22,WNW,292,10.6,10.6,78,0.00,,---,0.02,VWS V13.01,2013-04-25 03:30:00,
2013-04-24 22:35:00,36.8,30.6,29.22,WNW,292,7.6,16.0,78,0.00,,---,0.02,VWS V13.01,2013-04-25 03:35:00,
2013-04-24 22:40:00,36.6,30.4,29.21,West,270,14.2,14.2,78,0.00,,---,0.02,VWS V13.01,2013-04-25 03:40:00,
2013-04-24 22:45:00,36.5,30.3,29.22,West,270,8.4,8.4,78,0.00,,---,0.02,VWS V13.01,2013-04-25 03:45:00,
2013-04-24 22:50:00,36.3,30.1,29.22,West,270,12.0,12.0,78,0.00,,---,0.02,VWS V13.01,2013-04-25 03:50:00,
2013-04-24 22:55:00,36.1,29.9,29.22,WNW,292,5.2,12.8,78,0.00,,---,0.02,VWS V13.01,2013-04-25 03:55:00,
2013-04-24 23:00:00,35.9,29.7,29.22,WNW,292,9.8,9.8,78,0.00,,---,0.02,VWS V13.01,2013-04-25 04:00:00,
2013-04-24 23:01:00,35.9,30.0,29.22,West,270,13.8,13.8,79,0.00,,---,0.02,VWS V13.01,2013-04-25 04:01:00,
2013-04-24 23:02:00,35.9,30.0,29.22,West,270,13.8,13.8,79,0.00,,---,0.02,VWS V13.01,2013-04-25 04:02:00,
2013-04-24 23:04:00,35.7,29.8,29.22,West,270,4.4,4.4,79,0.00,,---,0.02,VWS V13.01,2013-04-25 04:04:00,
2013-04-24 23:06:00,35.7,29.8,29.22,West,270,10.6,10.6,79,0.00,,---,0.02,VWS V13.01,2013-04-25 04:06:00,
2013-04-24 23:12:00,35.7,29.8,29.22,WNW,292,2.6,10.2,79,0.00,,---,0.02,VWS V13.01,2013-04-25 04:12:00,
2013-04-24 23:17:00,35.4,29.5,29.21,NNW,338,12.4,12.4,79,0.00,,---,0.02,VWS V13.01,2013-04-25 04:17:00,
2013-04-24 23:22:00,35.4,29.5,29.21,West,270,7.6,7.6,79,0.00,,---,0.02,VWS V13.01,2013-04-25 04:22:00,
2013-04-24 23:27:00,35.4,29.5,29.21,West,270,8.4,9.8,79,0.00,,---,0.02,VWS V13.01,2013-04-25 04:27:00,
2013-04-24 23:32:00,35.4,29.5,29.21,West,270,3.4,3.4,79,0.00,,---,0.02,VWS V13.01,2013-04-25 04:32:00,
2013-04-24 23:37:00,35.4,29.5,29.21,West,270,5.2,8.4,79,0.00,,---,0.02,VWS V13.01,2013-04-25 04:37:00,
2013-04-24 23:42:00,35.4,29.5,29.21,West,270,8.8,8.8,79,0.00,,---,0.02,VWS V13.01,2013-04-25 04:42:00,
2013-04-24 23:47:00,35.4,29.5,29.22,West,270,9.2,9.2,79,0.00,,---,0.02,VWS V13.01,2013-04-25 04:47:00,
2013-04-24 23:52:00,35.2,29.7,29.22,West,270,8.4,8.4,80,0.00,,---,0.02,VWS V13.01,2013-04-25 04:52:00,
2013-04-24 23:57:00,35.2,29.7,29.21,West,270,5.2,6.6,80,0.00,,---,0.02,VWS V13.01,2013-04-25 04:57:00,